Toyofukumaru — JD2177 — position and weather

sailwx.info

Track history (hours):
 
Tides and Currents Weather Stations Pressure Air Temp Water Temp Dewpoint Dewpoint Depression Visibility Wind Speed Wind Dir Waves Ship Positions

Toyofukumaru

Last reported at 2015-Sep-02 15:04 UTC. Time now 2015-Sep-05 16:20 UTC.
Position N 34°29' E 138°22'.

Length 165 m; draft 6.2 m.

Type: Cargo ship. MMSI: 431200688.

Date/timePositionNaut miles runAvg speedWind from/ knotsBaromVisibWave heightAir tempDewpointWater temp
2015-Sep-02 15:04N 34°29' E 138°22'815.3
2015-Sep-02 14:33N 34°29' E 138°32'4615.4
2015-Sep-02 11:33N 34°52' E 139°21'1615.8
2015-Sep-02 10:33N 35°02' E 139°36'1414.3
2015-Sep-02 09:33N 35°13' E 139°46'1211.8
2015-Sep-02 08:33N 35°23' E 139°39'0 0.1
2015-Sep-02 07:33N 35°23' E 139°39'0 0.0
2015-Sep-02 06:33N 35°23' E 139°39'0 0.0
2015-Sep-02 05:33N 35°23' E 139°39'0 0.0
2015-Sep-02 04:33N 35°23' E 139°39'0 0.0
2015-Sep-02 03:33N 35°23' E 139°39'0 0.0
2015-Sep-02 02:33N 35°23' E 139°39'0 0.0
2015-Sep-02 01:33N 35°23' E 139°39'4 3.7
2015-Sep-02 00:33N 35°21' E 139°42'1414.1
2015-Sep-01 23:33N 35°07' E 139°46'1714.5
2015-Sep-01 22:24N 34°53' E 139°57'1619.0
2015-Sep-01 21:34N 35°02' E 140°13'1716.1
2015-Sep-01 20:30N 35°10' E 140°31'1717.3
2015-Sep-01 19:33N 35°24' E 140°43'1919.4
2015-Sep-01 18:33N 35°40' E 140°55'2019.6
2015-Sep-01 17:32N 35°60' E 140°58'2020.6
2015-Sep-01 16:33N 36°20' E 140°59'2020.3
2015-Sep-01 15:32N 36°40' E 141°01'1 0.1
2015-Aug-31 17:07N 36°40' E 141°02'1119.7
2015-Aug-31 16:32N 36°28' E 141°02'1919.2
2015-Aug-31 15:33N 36°10' E 140°59'2019.5
2015-Aug-31 14:33N 35°50' E 140°57'2019.8
2015-Aug-31 13:33N 35°32' E 140°49'2120.6
2015-Aug-31 12:32N 35°14' E 140°35'2020.6
2015-Aug-31 11:32N 35°01' E 140°15'2119.5
2015-Aug-31 10:29N 34°51' E 139°53'1516.2
2015-Aug-31 09:33N 35°04' E 139°44'1514.5
2015-Aug-31 08:33N 35°19' E 139°43'1211.7
2015-Aug-31 07:32N 35°30' E 139°46'0 0.0
2015-Aug-31 06:32N 35°30' E 139°46'0 0.0
2015-Aug-31 05:32N 35°30' E 139°46'0 0.0
2015-Aug-31 04:29N 35°30' E 139°46'0 0.0
2015-Aug-31 03:33N 35°30' E 139°46'9 9.0
2015-Aug-31 02:33N 35°23' E 139°39'0 0.0
2015-Aug-31 01:31N 35°23' E 139°39'0 0.0
2015-Aug-31 00:31N 35°23' E 139°39'0 0.0
2015-Aug-30 23:31N 35°23' E 139°39'0 0.0
2015-Aug-30 22:31N 35°23' E 139°39'8 8.5
2015-Aug-30 21:33N 35°17' E 139°45'1716.1
2015-Aug-30 20:32N 35°01' E 139°39'6018.8
2015-Aug-30 17:20N 34°30' E 138°36'49 1.7
2015-Aug-29 12:31N 34°56' E 139°27'1617.0
2015-Aug-29 11:33N 35°06' E 139°43'1312.8
2015-Aug-29 10:33N 35°19' E 139°43'5 5.1
2015-Aug-29 09:31N 35°23' E 139°39'0 0.0
2015-Aug-29 08:31N 35°23' E 139°39'0 0.0
2015-Aug-29 07:31N 35°23' E 139°39'0 0.0
2015-Aug-29 06:31N 35°23' E 139°39'0 0.0
2015-Aug-29 05:31N 35°23' E 139°39'0 0.0
2015-Aug-29 04:31N 35°23' E 139°39'0 0.1
2015-Aug-29 03:33N 35°23' E 139°39'1110.9
2015-Aug-29 02:33N 35°15' E 139°47'1817.9
2015-Aug-29 01:33N 34°57' E 139°44'1717.1
2015-Aug-29 00:33N 34°57' E 140°05'2219.9
2015-Aug-28 23:27N 35°08' E 140°27'1718.7
2015-Aug-28 22:31N 35°22' E 140°41'1919.5
2015-Aug-28 21:34N 35°37' E 140°53'2019.4
2015-Aug-28 20:31N 35°57' E 140°57'10 0.4
2015-Aug-27 17:31N 36°08' E 140°59'2117.0
2015-Aug-27 16:18N 35°47' E 140°57'1216.1
2015-Aug-27 15:33N 35°36' E 140°52'1716.9
2015-Aug-27 14:33N 35°21' E 140°41'1817.8
2015-Aug-27 13:33N 35°07' E 140°28'1818.1
2015-Aug-27 12:33N 34°58' E 140°09'1816.9
2015-Aug-27 11:31N 34°50' E 139°49'1617.0
2015-Aug-27 10:33N 35°06' E 139°44'1413.7
2015-Aug-27 09:33N 35°20' E 139°42'1110.1
2015-Aug-27 08:29N 35°30' E 139°46'0 0.0
2015-Aug-27 07:32N 35°30' E 139°46'0 0.0
2015-Aug-27 06:32N 35°30' E 139°46'0 0.0
2015-Aug-27 05:31N 35°30' E 139°46'0 0.0
2015-Aug-27 04:31N 35°30' E 139°46'4 4.1
2015-Aug-27 03:33N 35°27' E 139°43'5 4.9
2015-Aug-27 02:32N 35°23' E 139°39'0 0.0
2015-Aug-27 01:32N 35°23' E 139°39'0 0.0
2015-Aug-27 00:32N 35°23' E 139°39'0 0.0
2015-Aug-26 23:32N 35°23' E 139°39'0 0.0
2015-Aug-26 22:32N 35°23' E 139°39'3 3.2
2015-Aug-26 21:33N 35°21' E 139°42'1313.4
2015-Aug-26 20:34N 35°08' E 139°45'2119.9
2015-Aug-26 19:31N 34°55' E 139°26'5016.6
2015-Aug-26 16:30N 34°29' E 138°34'  
Track history (hours):
 
Tides and Currents Weather Stations Pressure Air Temp Water Temp Dewpoint Dewpoint Depression Visibility Wind Speed Wind Dir Waves Ship Positions

Toyofukumaru

Last reported at 2015-Sep-02 15:04 UTC. Time now 2015-Sep-05 16:20 UTC.
Position N 34°29' E 138°22'.

Length 165 m; draft 6.2 m.

Type: Cargo ship. MMSI: 431200688.

Date/timePositionNaut miles runAvg speedWind from/ knotsBaromVisibWave heightAir tempDewpointWater temp
2015-Sep-02 15:04N 34°29' E 138°22'815.3
2015-Sep-02 14:33N 34°29' E 138°32'4615.4
2015-Sep-02 11:33N 34°52' E 139°21'1615.8
2015-Sep-02 10:33N 35°02' E 139°36'1414.3
2015-Sep-02 09:33N 35°13' E 139°46'1211.8
2015-Sep-02 08:33N 35°23' E 139°39'0 0.1
2015-Sep-02 07:33N 35°23' E 139°39'0 0.0
2015-Sep-02 06:33N 35°23' E 139°39'0 0.0
2015-Sep-02 05:33N 35°23' E 139°39'0 0.0
2015-Sep-02 04:33N 35°23' E 139°39'0 0.0
2015-Sep-02 03:33N 35°23' E 139°39'0 0.0
2015-Sep-02 02:33N 35°23' E 139°39'0 0.0
2015-Sep-02 01:33N 35°23' E 139°39'4 3.7
2015-Sep-02 00:33N 35°21' E 139°42'1414.1
2015-Sep-01 23:33N 35°07' E 139°46'1714.5
2015-Sep-01 22:24N 34°53' E 139°57'1619.0
2015-Sep-01 21:34N 35°02' E 140°13'1716.1
2015-Sep-01 20:30N 35°10' E 140°31'1717.3
2015-Sep-01 19:33N 35°24' E 140°43'1919.4
2015-Sep-01 18:33N 35°40' E 140°55'2019.6
2015-Sep-01 17:32N 35°60' E 140°58'2020.6
2015-Sep-01 16:33N 36°20' E 140°59'2020.3
2015-Sep-01 15:32N 36°40' E 141°01'1 0.1
2015-Aug-31 17:07N 36°40' E 141°02'1119.7
2015-Aug-31 16:32N 36°28' E 141°02'1919.2
2015-Aug-31 15:33N 36°10' E 140°59'2019.5
2015-Aug-31 14:33N 35°50' E 140°57'2019.8
2015-Aug-31 13:33N 35°32' E 140°49'2120.6
2015-Aug-31 12:32N 35°14' E 140°35'2020.6
2015-Aug-31 11:32N 35°01' E 140°15'2119.5
2015-Aug-31 10:29N 34°51' E 139°53'1516.2
2015-Aug-31 09:33N 35°04' E 139°44'1514.5
2015-Aug-31 08:33N 35°19' E 139°43'1211.7
2015-Aug-31 07:32N 35°30' E 139°46'0 0.0
2015-Aug-31 06:32N 35°30' E 139°46'0 0.0
2015-Aug-31 05:32N 35°30' E 139°46'0 0.0
2015-Aug-31 04:29N 35°30' E 139°46'0 0.0
2015-Aug-31 03:33N 35°30' E 139°46'9 9.0
2015-Aug-31 02:33N 35°23' E 139°39'0 0.0
2015-Aug-31 01:31N 35°23' E 139°39'0 0.0
2015-Aug-31 00:31N 35°23' E 139°39'0 0.0
2015-Aug-30 23:31N 35°23' E 139°39'0 0.0
2015-Aug-30 22:31N 35°23' E 139°39'8 8.5
2015-Aug-30 21:33N 35°17' E 139°45'1716.1
2015-Aug-30 20:32N 35°01' E 139°39'6018.8
2015-Aug-30 17:20N 34°30' E 138°36'49 1.7
2015-Aug-29 12:31N 34°56' E 139°27'1617.0
2015-Aug-29 11:33N 35°06' E 139°43'1312.8
2015-Aug-29 10:33N 35°19' E 139°43'5 5.1
2015-Aug-29 09:31N 35°23' E 139°39'0 0.0
2015-Aug-29 08:31N 35°23' E 139°39'0 0.0
2015-Aug-29 07:31N 35°23' E 139°39'0 0.0
2015-Aug-29 06:31N 35°23' E 139°39'0 0.0
2015-Aug-29 05:31N 35°23' E 139°39'0 0.0
2015-Aug-29 04:31N 35°23' E 139°39'0 0.1
2015-Aug-29 03:33N 35°23' E 139°39'1110.9
2015-Aug-29 02:33N 35°15' E 139°47'1817.9
2015-Aug-29 01:33N 34°57' E 139°44'1717.1
2015-Aug-29 00:33N 34°57' E 140°05'2219.9
2015-Aug-28 23:27N 35°08' E 140°27'1718.7
2015-Aug-28 22:31N 35°22' E 140°41'1919.5
2015-Aug-28 21:34N 35°37' E 140°53'2019.4
2015-Aug-28 20:31N 35°57' E 140°57'10 0.4
2015-Aug-27 17:31N 36°08' E 140°59'2117.0
2015-Aug-27 16:18N 35°47' E 140°57'1216.1
2015-Aug-27 15:33N 35°36' E 140°52'1716.9
2015-Aug-27 14:33N 35°21' E 140°41'1817.8
2015-Aug-27 13:33N 35°07' E 140°28'1818.1
2015-Aug-27 12:33N 34°58' E 140°09'1816.9
2015-Aug-27 11:31N 34°50' E 139°49'1617.0
2015-Aug-27 10:33N 35°06' E 139°44'1413.7
2015-Aug-27 09:33N 35°20' E 139°42'1110.1
2015-Aug-27 08:29N 35°30' E 139°46'0 0.0
2015-Aug-27 07:32N 35°30' E 139°46'0 0.0
2015-Aug-27 06:32N 35°30' E 139°46'0 0.0
2015-Aug-27 05:31N 35°30' E 139°46'0 0.0
2015-Aug-27 04:31N 35°30' E 139°46'4 4.1
2015-Aug-27 03:33N 35°27' E 139°43'5 4.9
2015-Aug-27 02:32N 35°23' E 139°39'0 0.0
2015-Aug-27 01:32N 35°23' E 139°39'0 0.0
2015-Aug-27 00:32N 35°23' E 139°39'0 0.0
2015-Aug-26 23:32N 35°23' E 139°39'0 0.0
2015-Aug-26 22:32N 35°23' E 139°39'3 3.2
2015-Aug-26 21:33N 35°21' E 139°42'1313.4
2015-Aug-26 20:34N 35°08' E 139°45'2119.9
2015-Aug-26 19:31N 34°55' E 139°26'5016.6
2015-Aug-26 16:30N 34°29' E 138°34'  

Dump ship's entire track history